sensor_id;sensor_type;location;lat;lon;timestamp;temperature;humidity
16158;DHT22;8184;60.256;18.694;2023-02-26T00:01:15;0.00;99.90
16158;DHT22;8184;60.256;18.694;2023-02-26T00:03:48;0.00;99.90
16158;DHT22;8184;60.256;18.694;2023-02-26T00:06:16;0.00;99.90
16158;DHT22;8184;60.256;18.694;2023-02-26T00:08:45;0.00;99.90
16158;DHT22;8184;60.256;18.694;2023-02-26T00:11:13;0.00;99.90
16158;DHT22;8184;60.256;18.694;2023-02-26T00:13:42;0.00;99.90
16158;DHT22;8184;60.256;18.694;2023-02-26T00:16:12;-0.10;99.90
16158;DHT22;8184;60.256;18.694;2023-02-26T00:18:46;0.00;99.90
16158;DHT22;8184;60.256;18.694;2023-02-26T00:21:17;-0.10;99.90
16158;DHT22;8184;60.256;18.694;2023-02-26T00:23:45;-0.30;99.90
16158;DHT22;8184;60.256;18.694;2023-02-26T00:26:14;-0.10;99.90
16158;DHT22;8184;60.256;18.694;2023-02-26T00:28:42;-0.20;99.90
16158;DHT22;8184;60.256;18.694;2023-02-26T00:31:12;-0.20;99.90
16158;DHT22;8184;60.256;18.694;2023-02-26T00:33:42;-0.20;99.90
16158;DHT22;8184;60.256;18.694;2023-02-26T00:36:14;-0.30;99.90
16158;DHT22;8184;60.256;18.694;2023-02-26T00:38:46;-0.20;99.90
16158;DHT22;8184;60.256;18.694;2023-02-26T00:41:16;-0.30;99.90
16158;DHT22;8184;60.256;18.694;2023-02-26T00:43:45;-0.40;99.90
16158;DHT22;8184;60.256;18.694;2023-02-26T00:46:15;-0.30;99.90
16158;DHT22;8184;60.256;18.694;2023-02-26T00:48:52;-0.20;99.90
16158;DHT22;8184;60.256;18.694;2023-02-26T00:51:24;-0.20;99.90
16158;DHT22;8184;60.256;18.694;2023-02-26T00:53:58;-0.20;99.90
16158;DHT22;8184;60.256;18.694;2023-02-26T00:56:28;-0.20;99.90
16158;DHT22;8184;60.256;18.694;2023-02-26T00:58:56;-0.30;99.90
16158;DHT22;8184;60.256;18.694;2023-02-26T01:01:26;-0.30;99.90
16158;DHT22;8184;60.256;18.694;2023-02-26T01:03:55;-0.30;99.90
16158;DHT22;8184;60.256;18.694;2023-02-26T01:06:24;-0.20;99.90
16158;DHT22;8184;60.256;18.694;2023-02-26T01:08:56;-0.10;99.90
16158;DHT22;8184;60.256;18.694;2023-02-26T01:11:30;0.00;99.90
16158;DHT22;8184;60.256;18.694;2023-02-26T01:13:59;0.00;99.90
16158;DHT22;8184;60.256;18.694;2023-02-26T01:16:28;0.00;99.90
16158;DHT22;8184;60.256;18.694;2023-02-26T01:18:58;0.00;99.90
16158;DHT22;8184;60.256;18.694;2023-02-26T01:21:30;0.00;99.90
16158;DHT22;8184;60.256;18.694;2023-02-26T01:24:00;-0.10;99.90
16158;DHT22;8184;60.256;18.694;2023-02-26T01:26:32;0.00;99.90
16158;DHT22;8184;60.256;18.694;2023-02-26T01:29:02;0.10;99.90
16158;DHT22;8184;60.256;18.694;2023-02-26T01:31:33;0.10;99.90
16158;DHT22;8184;60.256;18.694;2023-02-26T01:34:02;0.00;99.90
16158;DHT22;8184;60.256;18.694;2023-02-26T01:36:35;0.00;99.90
16158;DHT22;8184;60.256;18.694;2023-02-26T01:39:10;0.00;99.90
16158;DHT22;8184;60.256;18.694;2023-02-26T01:41:42;0.00;99.90
16158;DHT22;8184;60.256;18.694;2023-02-26T01:44:13;0.00;99.90
16158;DHT22;8184;60.256;18.694;2023-02-26T01:46:50;0.10;99.90
16158;DHT22;8184;60.256;18.694;2023-02-26T01:49:25;0.00;99.90
16158;DHT22;8184;60.256;18.694;2023-02-26T01:51:54;-0.10;99.90
16158;DHT22;8184;60.256;18.694;2023-02-26T01:54:23;-0.10;99.90
16158;DHT22;8184;60.256;18.694;2023-02-26T01:56:56;-0.10;99.90
16158;DHT22;8184;60.256;18.694;2023-02-26T01:59:28;0.00;99.90
16158;DHT22;8184;60.256;18.694;2023-02-26T02:01:56;0.00;99.90
16158;DHT22;8184;60.256;18.694;2023-02-26T02:04:25;0.00;99.90
16158;DHT22;8184;60.256;18.694;2023-02-26T02:06:54;0.00;99.90
16158;DHT22;8184;60.256;18.694;2023-02-26T02:09:22;0.00;99.90
16158;DHT22;8184;60.256;18.694;2023-02-26T02:12:01;0.10;99.90
16158;DHT22;8184;60.256;18.694;2023-02-26T02:14:37;0.00;99.90
16158;DHT22;8184;60.256;18.694;2023-02-26T02:17:11;0.00;99.90
16158;DHT22;8184;60.256;18.694;2023-02-26T02:25:10;0.00;99.90
16158;DHT22;8184;60.256;18.694;2023-02-26T02:27:42;0.00;99.90
16158;DHT22;8184;60.256;18.694;2023-02-26T02:30:23;-0.10;99.90
16158;DHT22;8184;60.256;18.694;2023-02-26T02:32:58;-0.10;99.90
16158;DHT22;8184;60.256;18.694;2023-02-26T02:35:28;-0.10;99.90
16158;DHT22;8184;60.256;18.694;2023-02-26T02:37:59;-0.20;99.90
16158;DHT22;8184;60.256;18.694;2023-02-26T02:40:32;-0.20;99.90
16158;DHT22;8184;60.256;18.694;2023-02-26T02:43:01;-0.20;99.90
16158;DHT22;8184;60.256;18.694;2023-02-26T02:45:31;-0.20;99.90
16158;DHT22;8184;60.256;18.694;2023-02-26T02:48:04;-0.20;99.90
16158;DHT22;8184;60.256;18.694;2023-02-26T02:50:35;-0.20;99.90
16158;DHT22;8184;60.256;18.694;2023-02-26T02:53:06;-0.20;99.90
16158;DHT22;8184;60.256;18.694;2023-02-26T02:55:36;-0.10;99.90
16158;DHT22;8184;60.256;18.694;2023-02-26T02:58:05;-0.10;99.90
16158;DHT22;8184;60.256;18.694;2023-02-26T03:00:37;-0.10;99.90
16158;DHT22;8184;60.256;18.694;2023-02-26T03:03:15;-0.20;99.90
16158;DHT22;8184;60.256;18.694;2023-02-26T03:05:44;-0.20;99.90
16158;DHT22;8184;60.256;18.694;2023-02-26T03:08:14;-0.20;99.90
16158;DHT22;8184;60.256;18.694;2023-02-26T03:10:43;-0.20;99.90
16158;DHT22;8184;60.256;18.694;2023-02-26T03:13:13;-0.10;99.90
16158;DHT22;8184;60.256;18.694;2023-02-26T03:15:44;-0.20;99.90
16158;DHT22;8184;60.256;18.694;2023-02-26T03:18:18;-0.20;99.90
16158;DHT22;8184;60.256;18.694;2023-02-26T03:20:52;-0.20;99.90
16158;DHT22;8184;60.256;18.694;2023-02-26T03:23:24;-0.20;99.90
16158;DHT22;8184;60.256;18.694;2023-02-26T03:25:54;0.00;99.90
16158;DHT22;8184;60.256;18.694;2023-02-26T03:28:24;-0.10;99.90
16158;DHT22;8184;60.256;18.694;2023-02-26T03:30:54;-0.10;99.90
16158;DHT22;8184;60.256;18.694;2023-02-26T03:33:27;-0.10;99.90
16158;DHT22;8184;60.256;18.694;2023-02-26T03:35:58;0.00;99.90
16158;DHT22;8184;60.256;18.694;2023-02-26T03:38:29;-0.10;99.90
16158;DHT22;8184;60.256;18.694;2023-02-26T03:41:00;-0.10;99.90
16158;DHT22;8184;60.256;18.694;2023-02-26T03:43:32;-0.10;99.90
16158;DHT22;8184;60.256;18.694;2023-02-26T03:46:01;-0.10;99.90
16158;DHT22;8184;60.256;18.694;2023-02-26T03:48:32;-0.20;99.90
16158;DHT22;8184;60.256;18.694;2023-02-26T03:51:02;-0.10;99.90
16158;DHT22;8184;60.256;18.694;2023-02-26T03:53:33;-0.10;99.90
16158;DHT22;8184;60.256;18.694;2023-02-26T03:56:04;-0.10;99.90
16158;DHT22;8184;60.256;18.694;2023-02-26T03:58:33;-0.10;99.90
16158;DHT22;8184;60.256;18.694;2023-02-26T04:01:03;-0.20;99.90
16158;DHT22;8184;60.256;18.694;2023-02-26T04:03:34;-0.20;99.90
16158;DHT22;8184;60.256;18.694;2023-02-26T04:06:04;-0.20;99.90
16158;DHT22;8184;60.256;18.694;2023-02-26T04:08:32;-0.10;99.90
16158;DHT22;8184;60.256;18.694;2023-02-26T04:11:03;-0.10;99.90
16158;DHT22;8184;60.256;18.694;2023-02-26T04:13:33;-0.10;99.90
16158;DHT22;8184;60.256;18.694;2023-02-26T04:16:01;-0.10;99.90
16158;DHT22;8184;60.256;18.694;2023-02-26T04:18:29;-0.20;99.90
16158;DHT22;8184;60.256;18.694;2023-02-26T04:20:59;-0.20;99.90
16158;DHT22;8184;60.256;18.694;2023-02-26T04:23:27;-0.20;99.90
16158;DHT22;8184;60.256;18.694;2023-02-26T04:25:56;-0.20;99.90
16158;DHT22;8184;60.256;18.694;2023-02-26T04:28:24;-0.20;99.90
16158;DHT22;8184;60.256;18.694;2023-02-26T04:30:52;-0.10;99.90
16158;DHT22;8184;60.256;18.694;2023-02-26T04:33:21;-0.10;99.90
16158;DHT22;8184;60.256;18.694;2023-02-26T04:35:49;-0.20;99.90
16158;DHT22;8184;60.256;18.694;2023-02-26T04:38:18;-0.10;99.90
16158;DHT22;8184;60.256;18.694;2023-02-26T04:40:47;-0.10;99.90
16158;DHT22;8184;60.256;18.694;2023-02-26T04:43:16;-0.20;99.90
16158;DHT22;8184;60.256;18.694;2023-02-26T04:45:44;-0.10;99.90
16158;DHT22;8184;60.256;18.694;2023-02-26T04:48:12;-0.10;99.90
16158;DHT22;8184;60.256;18.694;2023-02-26T04:50:46;0.00;99.90
16158;DHT22;8184;60.256;18.694;2023-02-26T04:53:14;0.00;99.90
16158;DHT22;8184;60.256;18.694;2023-02-26T04:55:46;0.00;99.90
16158;DHT22;8184;60.256;18.694;2023-02-26T04:58:17;0.10;99.90
16158;DHT22;8184;60.256;18.694;2023-02-26T05:00:47;0.00;99.90
16158;DHT22;8184;60.256;18.694;2023-02-26T05:03:16;0.00;99.90
16158;DHT22;8184;60.256;18.694;2023-02-26T05:05:44;0.00;99.90
16158;DHT22;8184;60.256;18.694;2023-02-26T05:08:13;0.10;99.90
16158;DHT22;8184;60.256;18.694;2023-02-26T05:10:41;0.10;99.90
16158;DHT22;8184;60.256;18.694;2023-02-26T05:13:11;0.10;99.90
16158;DHT22;8184;60.256;18.694;2023-02-26T05:15:39;0.10;99.90
16158;DHT22;8184;60.256;18.694;2023-02-26T05:18:07;0.10;99.90
16158;DHT22;8184;60.256;18.694;2023-02-26T05:20:36;0.10;99.90
16158;DHT22;8184;60.256;18.694;2023-02-26T05:23:04;0.10;99.90
16158;DHT22;8184;60.256;18.694;2023-02-26T05:25:33;0.10;99.90
16158;DHT22;8184;60.256;18.694;2023-02-26T05:28:01;0.10;99.90
16158;DHT22;8184;60.256;18.694;2023-02-26T05:30:31;0.10;99.90
16158;DHT22;8184;60.256;18.694;2023-02-26T05:32:59;0.10;99.90
16158;DHT22;8184;60.256;18.694;2023-02-26T05:35:27;0.00;99.90
16158;DHT22;8184;60.256;18.694;2023-02-26T05:37:55;0.10;99.90
16158;DHT22;8184;60.256;18.694;2023-02-26T05:40:23;0.10;99.90
16158;DHT22;8184;60.256;18.694;2023-02-26T05:42:52;0.10;99.90
16158;DHT22;8184;60.256;18.694;2023-02-26T05:45:20;0.10;99.90
16158;DHT22;8184;60.256;18.694;2023-02-26T05:47:49;0.20;99.90
16158;DHT22;8184;60.256;18.694;2023-02-26T05:50:18;0.20;99.90
16158;DHT22;8184;60.256;18.694;2023-02-26T05:52:46;0.20;99.90
16158;DHT22;8184;60.256;18.694;2023-02-26T05:55:14;0.10;99.90
16158;DHT22;8184;60.256;18.694;2023-02-26T05:57:44;0.20;99.90
16158;DHT22;8184;60.256;18.694;2023-02-26T06:00:12;0.10;99.90
16158;DHT22;8184;60.256;18.694;2023-02-26T06:02:41;0.20;99.90
16158;DHT22;8184;60.256;18.694;2023-02-26T06:05:11;0.20;99.90
16158;DHT22;8184;60.256;18.694;2023-02-26T06:07:39;0.20;99.90
16158;DHT22;8184;60.256;18.694;2023-02-26T06:10:08;0.20;99.90
16158;DHT22;8184;60.256;18.694;2023-02-26T06:12:36;0.20;99.90
16158;DHT22;8184;60.256;18.694;2023-02-26T06:15:06;0.20;99.90
16158;DHT22;8184;60.256;18.694;2023-02-26T06:17:34;0.30;99.90
16158;DHT22;8184;60.256;18.694;2023-02-26T06:20:06;0.30;99.90
16158;DHT22;8184;60.256;18.694;2023-02-26T06:22:36;0.30;99.90
16158;DHT22;8184;60.256;18.694;2023-02-26T06:25:05;0.30;99.90
16158;DHT22;8184;60.256;18.694;2023-02-26T06:27:33;0.30;99.90
16158;DHT22;8184;60.256;18.694;2023-02-26T06:30:02;0.30;99.90
16158;DHT22;8184;60.256;18.694;2023-02-26T06:32:30;0.30;99.90
16158;DHT22;8184;60.256;18.694;2023-02-26T06:34:58;0.40;99.90
16158;DHT22;8184;60.256;18.694;2023-02-26T06:37:26;0.30;99.90
16158;DHT22;8184;60.256;18.694;2023-02-26T06:39:56;0.30;99.90
16158;DHT22;8184;60.256;18.694;2023-02-26T06:42:24;0.30;99.90
16158;DHT22;8184;60.256;18.694;2023-02-26T06:44:55;0.40;99.90
16158;DHT22;8184;60.256;18.694;2023-02-26T06:47:24;0.40;99.90
16158;DHT22;8184;60.256;18.694;2023-02-26T06:49:52;0.40;99.90
16158;DHT22;8184;60.256;18.694;2023-02-26T06:52:20;0.40;99.90
16158;DHT22;8184;60.256;18.694;2023-02-26T06:54:48;0.40;99.90
16158;DHT22;8184;60.256;18.694;2023-02-26T06:57:18;0.40;99.90
16158;DHT22;8184;60.256;18.694;2023-02-26T06:59:46;0.40;99.90
16158;DHT22;8184;60.256;18.694;2023-02-26T07:02:16;0.40;99.90
16158;DHT22;8184;60.256;18.694;2023-02-26T07:04:44;0.50;99.90
16158;DHT22;8184;60.256;18.694;2023-02-26T07:07:13;0.50;99.90
16158;DHT22;8184;60.256;18.694;2023-02-26T07:09:41;0.50;99.90
16158;DHT22;8184;60.256;18.694;2023-02-26T07:12:11;0.50;99.90
16158;DHT22;8184;60.256;18.694;2023-02-26T07:14:41;0.50;99.90
16158;DHT22;8184;60.256;18.694;2023-02-26T07:17:11;0.50;99.90
16158;DHT22;8184;60.256;18.694;2023-02-26T07:19:46;0.60;99.90
16158;DHT22;8184;60.256;18.694;2023-02-26T07:22:15;0.60;99.90
16158;DHT22;8184;60.256;18.694;2023-02-26T07:24:45;0.60;99.90
16158;DHT22;8184;60.256;18.694;2023-02-26T07:27:15;0.60;99.90
16158;DHT22;8184;60.256;18.694;2023-02-26T07:29:45;0.60;99.90
16158;DHT22;8184;60.256;18.694;2023-02-26T07:32:13;0.70;99.90
16158;DHT22;8184;60.256;18.694;2023-02-26T07:34:41;0.70;99.90
16158;DHT22;8184;60.256;18.694;2023-02-26T07:37:10;0.70;99.90
16158;DHT22;8184;60.256;18.694;2023-02-26T07:39:38;0.70;99.90
16158;DHT22;8184;60.256;18.694;2023-02-26T07:42:06;0.70;99.90
16158;DHT22;8184;60.256;18.694;2023-02-26T07:44:34;0.70;99.90
16158;DHT22;8184;60.256;18.694;2023-02-26T07:47:04;0.70;99.90
16158;DHT22;8184;60.256;18.694;2023-02-26T07:49:33;0.70;99.90
16158;DHT22;8184;60.256;18.694;2023-02-26T07:52:01;0.70;99.90
16158;DHT22;8184;60.256;18.694;2023-02-26T07:54:29;0.80;99.90
16158;DHT22;8184;60.256;18.694;2023-02-26T07:56:57;0.80;99.90
16158;DHT22;8184;60.256;18.694;2023-02-26T07:59:25;0.80;99.90
16158;DHT22;8184;60.256;18.694;2023-02-26T08:01:54;0.80;99.90
16158;DHT22;8184;60.256;18.694;2023-02-26T08:04:24;0.80;99.90
16158;DHT22;8184;60.256;18.694;2023-02-26T08:06:52;0.80;99.90
16158;DHT22;8184;60.256;18.694;2023-02-26T08:09:22;0.80;99.90
16158;DHT22;8184;60.256;18.694;2023-02-26T08:11:50;0.80;99.90
16158;DHT22;8184;60.256;18.694;2023-02-26T08:14:18;0.90;99.90
16158;DHT22;8184;60.256;18.694;2023-02-26T08:16:46;0.90;99.90
16158;DHT22;8184;60.256;18.694;2023-02-26T08:19:14;0.80;99.90
16158;DHT22;8184;60.256;18.694;2023-02-26T08:21:45;0.80;99.90
16158;DHT22;8184;60.256;18.694;2023-02-26T08:24:16;0.80;99.90
16158;DHT22;8184;60.256;18.694;2023-02-26T08:26:44;0.80;99.90
16158;DHT22;8184;60.256;18.694;2023-02-26T08:29:12;0.90;99.90
16158;DHT22;8184;60.256;18.694;2023-02-26T08:31:41;0.90;99.90
16158;DHT22;8184;60.256;18.694;2023-02-26T08:34:09;1.00;99.90
16158;DHT22;8184;60.256;18.694;2023-02-26T08:36:37;1.00;99.90
16158;DHT22;8184;60.256;18.694;2023-02-26T08:39:07;0.90;99.90
16158;DHT22;8184;60.256;18.694;2023-02-26T08:41:35;0.90;99.90
16158;DHT22;8184;60.256;18.694;2023-02-26T08:44:04;0.90;99.90
16158;DHT22;8184;60.256;18.694;2023-02-26T08:46:32;0.90;99.90
16158;DHT22;8184;60.256;18.694;2023-02-26T08:49:01;1.00;99.90
16158;DHT22;8184;60.256;18.694;2023-02-26T08:51:29;1.10;99.90
16158;DHT22;8184;60.256;18.694;2023-02-26T08:53:57;1.30;99.90
16158;DHT22;8184;60.256;18.694;2023-02-26T08:56:27;1.20;99.90
16158;DHT22;8184;60.256;18.694;2023-02-26T08:58:55;1.10;99.90
16158;DHT22;8184;60.256;18.694;2023-02-26T09:01:23;1.10;99.90
16158;DHT22;8184;60.256;18.694;2023-02-26T09:03:52;1.10;99.90
16158;DHT22;8184;60.256;18.694;2023-02-26T09:06:22;1.10;99.90
16158;DHT22;8184;60.256;18.694;2023-02-26T09:08:51;1.10;99.90
16158;DHT22;8184;60.256;18.694;2023-02-26T09:11:20;1.20;99.90
16158;DHT22;8184;60.256;18.694;2023-02-26T09:13:50;1.20;99.90
16158;DHT22;8184;60.256;18.694;2023-02-26T09:16:18;1.10;99.90
16158;DHT22;8184;60.256;18.694;2023-02-26T09:18:46;1.00;99.90
16158;DHT22;8184;60.256;18.694;2023-02-26T09:21:15;1.00;99.90
16158;DHT22;8184;60.256;18.694;2023-02-26T09:23:43;1.00;99.90
16158;DHT22;8184;60.256;18.694;2023-02-26T09:26:11;1.00;99.90
16158;DHT22;8184;60.256;18.694;2023-02-26T09:28:39;1.00;99.90
16158;DHT22;8184;60.256;18.694;2023-02-26T09:31:09;1.00;99.90
16158;DHT22;8184;60.256;18.694;2023-02-26T09:33:43;1.00;99.90
16158;DHT22;8184;60.256;18.694;2023-02-26T09:36:11;0.90;99.90
16158;DHT22;8184;60.256;18.694;2023-02-26T09:38:39;0.80;99.90
16158;DHT22;8184;60.256;18.694;2023-02-26T09:41:13;0.70;99.90
16158;DHT22;8184;60.256;18.694;2023-02-26T09:43:53;0.80;99.90
16158;DHT22;8184;60.256;18.694;2023-02-26T09:46:28;0.80;99.90
16158;DHT22;8184;60.256;18.694;2023-02-26T09:49:00;0.90;99.90
16158;DHT22;8184;60.256;18.694;2023-02-26T09:51:31;0.80;99.90
16158;DHT22;8184;60.256;18.694;2023-02-26T09:54:01;0.60;99.90
16158;DHT22;8184;60.256;18.694;2023-02-26T09:56:35;0.60;99.90
16158;DHT22;8184;60.256;18.694;2023-02-26T09:59:04;0.60;99.90
16158;DHT22;8184;60.256;18.694;2023-02-26T10:01:34;0.50;99.90
16158;DHT22;8184;60.256;18.694;2023-02-26T10:04:11;0.40;99.90
16158;DHT22;8184;60.256;18.694;2023-02-26T10:06:48;0.40;99.90
16158;DHT22;8184;60.256;18.694;2023-02-26T10:09:26;0.60;99.90
16158;DHT22;8184;60.256;18.694;2023-02-26T10:11:59;0.70;99.90
16158;DHT22;8184;60.256;18.694;2023-02-26T10:14:31;0.80;99.90
16158;DHT22;8184;60.256;18.694;2023-02-26T10:17:05;0.80;99.90
16158;DHT22;8184;60.256;18.694;2023-02-26T10:19:34;0.90;99.90
16158;DHT22;8184;60.256;18.694;2023-02-26T10:22:04;1.00;99.90
16158;DHT22;8184;60.256;18.694;2023-02-26T10:24:37;0.90;99.90
16158;DHT22;8184;60.256;18.694;2023-02-26T10:27:08;0.90;99.90
16158;DHT22;8184;60.256;18.694;2023-02-26T10:29:39;0.70;99.90
16158;DHT22;8184;60.256;18.694;2023-02-26T10:32:17;0.80;99.90
16158;DHT22;8184;60.256;18.694;2023-02-26T10:34:50;0.60;99.90
16158;DHT22;8184;60.256;18.694;2023-02-26T10:37:20;0.60;99.90
16158;DHT22;8184;60.256;18.694;2023-02-26T10:39:52;0.60;99.90
16158;DHT22;8184;60.256;18.694;2023-02-26T10:42:22;0.70;99.90
16158;DHT22;8184;60.256;18.694;2023-02-26T10:44:59;0.60;99.90
16158;DHT22;8184;60.256;18.694;2023-02-26T10:47:36;0.80;99.90
16158;DHT22;8184;60.256;18.694;2023-02-26T10:50:11;0.80;99.90
16158;DHT22;8184;60.256;18.694;2023-02-26T10:52:40;0.90;99.90
16158;DHT22;8184;60.256;18.694;2023-02-26T10:55:24;0.90;99.90
16158;DHT22;8184;60.256;18.694;2023-02-26T10:57:54;0.70;99.90
16158;DHT22;8184;60.256;18.694;2023-02-26T11:00:23;0.70;99.90
16158;DHT22;8184;60.256;18.694;2023-02-26T11:02:53;0.90;99.90
16158;DHT22;8184;60.256;18.694;2023-02-26T11:05:23;0.80;99.90
16158;DHT22;8184;60.256;18.694;2023-02-26T11:07:53;0.80;99.90
16158;DHT22;8184;60.256;18.694;2023-02-26T11:10:23;0.90;99.90
16158;DHT22;8184;60.256;18.694;2023-02-26T11:12:52;0.90;99.90
16158;DHT22;8184;60.256;18.694;2023-02-26T11:15:21;1.00;99.90
16158;DHT22;8184;60.256;18.694;2023-02-26T11:17:53;0.90;99.90
16158;DHT22;8184;60.256;18.694;2023-02-26T11:20:25;0.90;99.90
16158;DHT22;8184;60.256;18.694;2023-02-26T11:22:56;0.90;99.90
16158;DHT22;8184;60.256;18.694;2023-02-26T11:25:27;0.90;99.90
16158;DHT22;8184;60.256;18.694;2023-02-26T11:27:58;0.90;99.90
16158;DHT22;8184;60.256;18.694;2023-02-26T11:30:28;0.90;99.90
16158;DHT22;8184;60.256;18.694;2023-02-26T11:33:03;1.10;99.90
16158;DHT22;8184;60.256;18.694;2023-02-26T11:35:31;0.90;99.90
16158;DHT22;8184;60.256;18.694;2023-02-26T11:38:00;0.80;99.90
16158;DHT22;8184;60.256;18.694;2023-02-26T11:40:32;0.60;99.90
16158;DHT22;8184;60.256;18.694;2023-02-26T11:43:03;0.80;99.90
16158;DHT22;8184;60.256;18.694;2023-02-26T11:45:33;0.80;99.90
16158;DHT22;8184;60.256;18.694;2023-02-26T11:48:06;0.70;99.90
16158;DHT22;8184;60.256;18.694;2023-02-26T11:50:41;0.90;99.90
16158;DHT22;8184;60.256;18.694;2023-02-26T11:53:16;0.90;99.90
16158;DHT22;8184;60.256;18.694;2023-02-26T11:55:45;0.80;99.90
16158;DHT22;8184;60.256;18.694;2023-02-26T11:58:16;0.80;99.90
16158;DHT22;8184;60.256;18.694;2023-02-26T12:00:44;0.60;99.90
16158;DHT22;8184;60.256;18.694;2023-02-26T12:03:17;0.50;99.90
16158;DHT22;8184;60.256;18.694;2023-02-26T12:05:47;0.60;99.90
16158;DHT22;8184;60.256;18.694;2023-02-26T12:08:16;0.70;99.90
16158;DHT22;8184;60.256;18.694;2023-02-26T12:10:50;0.60;99.90
16158;DHT22;8184;60.256;18.694;2023-02-26T12:13:23;0.70;99.90
16158;DHT22;8184;60.256;18.694;2023-02-26T12:15:55;0.80;99.90
16158;DHT22;8184;60.256;18.694;2023-02-26T12:18:31;0.80;99.90
16158;DHT22;8184;60.256;18.694;2023-02-26T12:21:04;0.80;99.90
16158;DHT22;8184;60.256;18.694;2023-02-26T12:23:49;0.80;99.90
16158;DHT22;8184;60.256;18.694;2023-02-26T12:26:24;0.80;99.90
16158;DHT22;8184;60.256;18.694;2023-02-26T12:28:57;0.80;99.90
16158;DHT22;8184;60.256;18.694;2023-02-26T12:34:32;0.90;99.90
16158;DHT22;8184;60.256;18.694;2023-02-26T12:37:08;0.70;99.90
16158;DHT22;8184;60.256;18.694;2023-02-26T12:39:45;0.60;99.90
16158;DHT22;8184;60.256;18.694;2023-02-26T12:42:17;0.40;99.90
16158;DHT22;8184;60.256;18.694;2023-02-26T12:47:40;0.40;99.90
16158;DHT22;8184;60.256;18.694;2023-02-26T12:50:23;0.50;99.90
16158;DHT22;8184;60.256;18.694;2023-02-26T12:55:38;0.50;99.90
16158;DHT22;8184;60.256;18.694;2023-02-26T13:00:58;0.60;99.90
16158;DHT22;8184;60.256;18.694;2023-02-26T13:09:27;0.40;99.90
16158;DHT22;8184;60.256;18.694;2023-02-26T13:12:07;0.40;99.90
16158;DHT22;8184;60.256;18.694;2023-02-26T13:14:42;0.50;99.90
16158;DHT22;8184;60.256;18.694;2023-02-26T13:17:15;0.50;99.90
16158;DHT22;8184;60.256;18.694;2023-02-26T13:19:46;0.60;99.90
16158;DHT22;8184;60.256;18.694;2023-02-26T13:22:17;0.60;99.90
16158;DHT22;8184;60.256;18.694;2023-02-26T13:24:50;0.60;99.90
16158;DHT22;8184;60.256;18.694;2023-02-26T13:27:20;0.70;99.90
16158;DHT22;8184;60.256;18.694;2023-02-26T13:29:52;0.70;99.90
16158;DHT22;8184;60.256;18.694;2023-02-26T13:32:23;0.50;99.90
16158;DHT22;8184;60.256;18.694;2023-02-26T13:34:56;0.40;99.90
16158;DHT22;8184;60.256;18.694;2023-02-26T13:37:25;0.40;99.90
16158;DHT22;8184;60.256;18.694;2023-02-26T13:39:59;0.40;99.90
16158;DHT22;8184;60.256;18.694;2023-02-26T13:42:34;0.50;99.90
16158;DHT22;8184;60.256;18.694;2023-02-26T13:45:10;0.30;99.90
16158;DHT22;8184;60.256;18.694;2023-02-26T13:47:50;0.40;99.90
16158;DHT22;8184;60.256;18.694;2023-02-26T13:50:24;0.50;99.90
16158;DHT22;8184;60.256;18.694;2023-02-26T13:52:55;0.60;99.90
16158;DHT22;8184;60.256;18.694;2023-02-26T13:55:39;0.70;99.90
16158;DHT22;8184;60.256;18.694;2023-02-26T13:58:26;0.70;99.90
16158;DHT22;8184;60.256;18.694;2023-02-26T14:00:59;0.60;99.90
16158;DHT22;8184;60.256;18.694;2023-02-26T14:03:31;0.50;99.90
16158;DHT22;8184;60.256;18.694;2023-02-26T14:06:21;0.50;99.90
16158;DHT22;8184;60.256;18.694;2023-02-26T14:08:52;0.60;99.90
16158;DHT22;8184;60.256;18.694;2023-02-26T14:11:26;0.60;99.90
16158;DHT22;8184;60.256;18.694;2023-02-26T14:16:52;0.60;99.90
16158;DHT22;8184;60.256;18.694;2023-02-26T14:19:22;0.50;99.90
16158;DHT22;8184;60.256;18.694;2023-02-26T14:21:51;0.60;99.90
16158;DHT22;8184;60.256;18.694;2023-02-26T14:24:25;0.60;99.90
16158;DHT22;8184;60.256;18.694;2023-02-26T14:29:57;0.70;99.90
16158;DHT22;8184;60.256;18.694;2023-02-26T14:32:28;0.60;99.90
16158;DHT22;8184;60.256;18.694;2023-02-26T14:34:57;0.60;99.90
16158;DHT22;8184;60.256;18.694;2023-02-26T14:37:27;0.70;99.90
16158;DHT22;8184;60.256;18.694;2023-02-26T14:39:56;0.80;99.90
16158;DHT22;8184;60.256;18.694;2023-02-26T14:42:29;0.70;99.90
16158;DHT22;8184;60.256;18.694;2023-02-26T14:45:02;0.70;99.90
16158;DHT22;8184;60.256;18.694;2023-02-26T14:47:33;0.60;99.90
16158;DHT22;8184;60.256;18.694;2023-02-26T14:50:02;0.60;99.90
16158;DHT22;8184;60.256;18.694;2023-02-26T14:52:34;0.50;99.90
16158;DHT22;8184;60.256;18.694;2023-02-26T14:55:17;0.50;99.90
16158;DHT22;8184;60.256;18.694;2023-02-26T14:57:51;0.50;99.90
16158;DHT22;8184;60.256;18.694;2023-02-26T15:00:27;0.40;99.90
16158;DHT22;8184;60.256;18.694;2023-02-26T15:03:06;0.30;99.90
16158;DHT22;8184;60.256;18.694;2023-02-26T15:05:40;0.30;99.90
16158;DHT22;8184;60.256;18.694;2023-02-26T15:08:23;0.30;99.90
16158;DHT22;8184;60.256;18.694;2023-02-26T15:11:00;0.40;99.90
16158;DHT22;8184;60.256;18.694;2023-02-26T15:13:35;0.40;99.90
16158;DHT22;8184;60.256;18.694;2023-02-26T15:16:10;0.40;99.90
16158;DHT22;8184;60.256;18.694;2023-02-26T15:18:49;0.40;99.90
16158;DHT22;8184;60.256;18.694;2023-02-26T15:21:24;0.40;99.90
16158;DHT22;8184;60.256;18.694;2023-02-26T15:23:54;0.40;99.90
16158;DHT22;8184;60.256;18.694;2023-02-26T15:26:25;0.30;99.90
16158;DHT22;8184;60.256;18.694;2023-02-26T15:28:54;0.40;99.90
16158;DHT22;8184;60.256;18.694;2023-02-26T15:31:29;0.40;99.90
16158;DHT22;8184;60.256;18.694;2023-02-26T15:33:59;0.40;99.90
16158;DHT22;8184;60.256;18.694;2023-02-26T15:36:29;0.30;99.90
16158;DHT22;8184;60.256;18.694;2023-02-26T15:38:57;0.20;99.90
16158;DHT22;8184;60.256;18.694;2023-02-26T15:41:27;0.30;99.90
16158;DHT22;8184;60.256;18.694;2023-02-26T15:43:57;0.20;99.90
16158;DHT22;8184;60.256;18.694;2023-02-26T15:46:27;0.20;99.90
16158;DHT22;8184;60.256;18.694;2023-02-26T15:48:59;0.10;99.90
16158;DHT22;8184;60.256;18.694;2023-02-26T15:51:31;0.10;99.90
16158;DHT22;8184;60.256;18.694;2023-02-26T15:53:59;0.10;99.90
16158;DHT22;8184;60.256;18.694;2023-02-26T15:56:29;0.10;99.90
16158;DHT22;8184;60.256;18.694;2023-02-26T15:58:58;0.00;99.90
16158;DHT22;8184;60.256;18.694;2023-02-26T16:01:29;0.00;99.90
16158;DHT22;8184;60.256;18.694;2023-02-26T16:04:00;0.00;99.90
16158;DHT22;8184;60.256;18.694;2023-02-26T16:06:31;-0.10;99.90
16158;DHT22;8184;60.256;18.694;2023-02-26T16:08:59;-0.10;99.90
16158;DHT22;8184;60.256;18.694;2023-02-26T16:11:28;-0.20;99.90
16158;DHT22;8184;60.256;18.694;2023-02-26T16:13:59;-0.10;99.90
16158;DHT22;8184;60.256;18.694;2023-02-26T16:16:40;-0.20;99.90
16158;DHT22;8184;60.256;18.694;2023-02-26T16:19:11;-0.20;99.90
16158;DHT22;8184;60.256;18.694;2023-02-26T16:21:40;-0.30;99.90
16158;DHT22;8184;60.256;18.694;2023-02-26T16:24:11;-0.40;99.90
16158;DHT22;8184;60.256;18.694;2023-02-26T16:26:41;-0.50;99.90
16158;DHT22;8184;60.256;18.694;2023-02-26T16:29:11;-0.50;99.90
16158;DHT22;8184;60.256;18.694;2023-02-26T16:31:42;-0.60;99.90
16158;DHT22;8184;60.256;18.694;2023-02-26T16:34:24;-0.70;99.90